createdAt,value
2023-05-05T00:02:17.667Z,47.50
2023-05-05T00:05:32.917Z,47.20
2023-05-05T00:08:45.377Z,46.80
2023-05-05T00:11:55.947Z,46.80
2023-05-05T00:15:09.821Z,46.90
2023-05-05T00:18:24.804Z,46.80
2023-05-05T00:21:36.530Z,46.50
2023-05-05T00:24:49.014Z,46.50
2023-05-05T00:28:01.843Z,46.70
2023-05-05T00:31:12.165Z,46.70
2023-05-05T00:34:23.587Z,46.60
2023-05-05T00:37:35.538Z,46.50
2023-05-05T00:40:47.776Z,46.40
2023-05-05T00:43:59.375Z,46.40
2023-05-05T00:47:09.927Z,46.40
2023-05-05T00:50:25.511Z,46.40
2023-05-05T00:53:41.331Z,46.40
2023-05-05T00:56:51.427Z,46.60
2023-05-05T01:00:01.665Z,46.80
2023-05-05T01:03:13.564Z,46.90
2023-05-05T01:06:32.216Z,47.00
2023-05-05T01:09:45.677Z,47.00
2023-05-05T01:12:59.416Z,47.20
2023-05-05T01:16:16.391Z,47.30
2023-05-05T01:19:40.213Z,47.40
2023-05-05T01:22:52.493Z,47.40
2023-05-05T01:26:31.461Z,47.50
2023-05-05T01:30:02.126Z,47.40
2023-05-05T01:33:12.901Z,48.00
2023-05-05T01:36:23.334Z,47.20
2023-05-05T01:39:36.491Z,47.10
2023-05-05T01:42:48.147Z,47.20
2023-05-05T01:46:02.362Z,47.20
2023-05-05T01:49:11.658Z,47.00
2023-05-05T01:52:22.651Z,46.90
2023-05-05T01:55:35.811Z,47.00
2023-05-05T01:58:44.731Z,47.00
2023-05-05T02:01:58.023Z,47.10
2023-05-05T02:05:10.344Z,47.00
2023-05-05T02:08:23.713Z,46.80
2023-05-05T02:11:34.716Z,47.00
2023-05-05T02:14:47.200Z,47.10
2023-05-05T02:17:58.967Z,47.10
2023-05-05T02:21:11.442Z,46.90
2023-05-05T02:24:22.436Z,46.80
2023-05-05T02:27:35.265Z,47.60
2023-05-05T02:30:45.548Z,47.00
2023-05-05T02:33:56.501Z,46.90
2023-05-05T02:37:09.358Z,46.70
2023-05-05T02:40:22.349Z,46.70
2023-05-05T02:43:38.206Z,46.90
2023-05-05T02:46:50.642Z,47.50
2023-05-05T02:50:03.506Z,46.80
2023-05-05T02:53:14.662Z,46.50
2023-05-05T02:56:30.468Z,46.70
2023-05-05T02:59:42.611Z,46.70
2023-05-05T03:02:55.347Z,46.80
2023-05-05T03:06:11.930Z,46.60
2023-05-05T03:09:24.218Z,46.50
2023-05-05T03:12:38.508Z,46.60
2023-05-05T03:15:50.877Z,46.60
2023-05-05T03:19:01.647Z,46.50
2023-05-05T03:22:15.542Z,46.50
2023-05-05T03:25:28.392Z,46.30
2023-05-05T03:28:38.889Z,46.50
2023-05-05T03:31:48.883Z,46.50
2023-05-05T03:35:00.550Z,46.30
2023-05-05T03:38:12.469Z,46.20
2023-05-05T03:41:25.935Z,46.20
2023-05-05T03:44:37.288Z,46.40
2023-05-05T03:47:48.648Z,46.30
2023-05-05T03:50:59.052Z,46.30
2023-05-05T03:54:11.353Z,46.10
2023-05-05T03:57:21.660Z,46.20
2023-05-05T04:00:33.652Z,46.30
2023-05-05T04:03:44.766Z,46.10
2023-05-05T04:06:58.467Z,46.00
2023-05-05T04:10:11.422Z,46.00
2023-05-05T04:13:20.259Z,46.10
2023-05-05T04:16:29.551Z,46.10
2023-05-05T04:19:41.686Z,45.90
2023-05-05T04:22:53.357Z,46.50
2023-05-05T04:26:05.677Z,46.00
2023-05-05T04:29:17.138Z,46.10
2023-05-05T04:32:31.535Z,46.10
2023-05-05T04:35:40.840Z,46.00
2023-05-05T04:38:52.442Z,45.80
2023-05-05T04:42:05.721Z,46.00
2023-05-05T04:45:15.494Z,46.00
2023-05-05T04:48:28.690Z,46.00
2023-05-05T04:51:41.620Z,45.70
2023-05-05T04:54:53.327Z,45.80
2023-05-05T04:58:07.342Z,46.50
2023-05-05T05:01:21.692Z,46.00
2023-05-05T05:04:32.372Z,45.80
2023-05-05T05:07:44.280Z,45.80
2023-05-05T05:10:55.998Z,45.90
2023-05-05T05:14:09.783Z,45.90
2023-05-05T05:17:24.620Z,45.90
2023-05-05T05:20:35.252Z,45.60
2023-05-05T05:23:47.284Z,45.90
2023-05-05T05:26:59.646Z,45.80
2023-05-05T05:30:12.469Z,45.90
2023-05-05T05:33:22.234Z,45.80
2023-05-05T05:36:32.546Z,45.70
2023-05-05T05:39:43.205Z,45.70
2023-05-05T05:42:54.188Z,45.80
2023-05-05T05:46:08.376Z,45.90
2023-05-05T05:49:18.900Z,45.80
2023-05-05T05:52:30.417Z,45.70
2023-05-05T05:55:42.756Z,45.70
2023-05-05T05:58:55.501Z,45.80
2023-05-05T06:02:10.240Z,45.90
2023-05-05T06:05:19.263Z,45.70
2023-05-05T06:08:28.295Z,45.60
2023-05-05T06:11:43.137Z,45.70
2023-05-05T06:14:54.686Z,45.90
2023-05-05T06:18:06.813Z,46.00
2023-05-05T06:21:17.268Z,45.80
2023-05-05T06:24:25.130Z,45.70
2023-05-05T06:27:33.035Z,45.80
2023-05-05T06:30:46.839Z,45.90
2023-05-05T06:33:57.944Z,46.00
2023-05-05T06:37:12.679Z,45.40
2023-05-05T06:40:22.706Z,45.80
2023-05-05T06:43:34.595Z,45.80
2023-05-05T06:46:45.391Z,46.00
2023-05-05T06:49:55.473Z,45.90
2023-05-05T06:53:06.085Z,45.70
2023-05-05T06:56:19.708Z,45.80
2023-05-05T06:59:32.917Z,45.90
2023-05-05T07:02:45.637Z,46.10
2023-05-05T07:05:56.199Z,45.90
2023-05-05T07:09:09.035Z,45.80
2023-05-05T07:12:23.508Z,45.90
2023-05-05T07:15:36.874Z,46.00
2023-05-05T07:18:45.550Z,45.90
2023-05-05T07:21:56.129Z,45.80
2023-05-05T07:25:11.157Z,45.80
2023-05-05T07:28:24.080Z,45.90
2023-05-05T07:31:35.427Z,46.00
2023-05-05T07:34:48.056Z,45.90
2023-05-05T07:38:00.847Z,45.80
2023-05-05T07:41:12.231Z,45.80
2023-05-05T07:44:22.671Z,45.80
2023-05-05T07:47:36.556Z,45.90
2023-05-05T07:50:47.323Z,45.80
2023-05-05T07:54:00.316Z,45.70
2023-05-05T07:57:11.297Z,45.80
2023-05-05T08:00:24.600Z,45.90
2023-05-05T08:03:33.758Z,46.00
2023-05-05T08:06:48.243Z,45.90
2023-05-05T08:09:57.751Z,45.70
2023-05-05T08:13:09.033Z,45.90
2023-05-05T08:16:21.044Z,46.00
2023-05-05T08:19:34.935Z,46.00
2023-05-05T08:22:44.177Z,45.80
2023-05-05T08:25:55.964Z,45.90
2023-05-05T08:29:05.663Z,45.90
2023-05-05T08:32:18.831Z,46.00
2023-05-05T08:35:31.798Z,45.80
2023-05-05T08:38:40.881Z,45.70
2023-05-05T08:41:51.903Z,45.70
2023-05-05T08:45:02.586Z,45.80
2023-05-05T08:48:14.372Z,45.90
2023-05-05T08:51:26.364Z,45.70
2023-05-05T08:54:37.121Z,45.70
2023-05-05T08:57:49.628Z,45.80
2023-05-05T09:01:03.663Z,45.90
2023-05-05T09:04:13.076Z,45.90
2023-05-05T09:07:25.585Z,45.80
2023-05-05T09:10:37.914Z,45.80
2023-05-05T09:13:49.123Z,45.70
2023-05-05T09:17:00.973Z,45.80
2023-05-05T09:20:13.396Z,45.70
2023-05-05T09:23:22.705Z,45.70
2023-05-05T09:26:30.570Z,45.70
2023-05-05T09:29:41.837Z,45.60
2023-05-05T09:32:50.711Z,45.70
2023-05-05T09:36:03.864Z,45.70
2023-05-05T09:39:13.692Z,45.50
2023-05-05T09:42:27.117Z,45.60
2023-05-05T09:45:39.725Z,45.70
2023-05-05T09:48:51.538Z,45.80
2023-05-05T09:52:07.315Z,45.50
2023-05-05T09:55:21.479Z,45.50
2023-05-05T09:58:34.865Z,45.60
2023-05-05T10:01:45.110Z,45.60
2023-05-05T10:05:01.621Z,45.70
2023-05-05T10:08:18.032Z,45.70
2023-05-05T10:11:30.373Z,45.70
2023-05-05T10:14:42.455Z,45.70
2023-05-05T10:18:06.942Z,45.80
2023-05-05T10:21:07.819Z,45.60
2023-05-05T10:24:22.488Z,45.60
2023-05-05T10:27:35.508Z,45.60
2023-05-05T10:30:49.081Z,45.60
2023-05-05T10:34:03.743Z,45.70
2023-05-05T10:37:13.621Z,45.50
2023-05-05T10:40:25.332Z,45.30
2023-05-05T10:43:39.415Z,45.00
2023-05-05T10:46:48.265Z,45.00
2023-05-05T10:50:04.341Z,45.00
2023-05-05T10:53:20.524Z,44.90
2023-05-05T10:56:32.846Z,45.00
2023-05-05T10:59:52.498Z,44.80
2023-05-05T11:03:27.495Z,44.70
2023-05-05T11:06:42.399Z,44.50
2023-05-05T11:10:07.806Z,44.50
2023-05-05T11:13:27.299Z,44.50
2023-05-05T11:16:53.220Z,44.70
2023-05-05T11:20:04.038Z,45.00
2023-05-05T11:23:29.906Z,45.40
2023-05-05T11:26:59.541Z,45.20
2023-05-05T11:30:13.622Z,45.40
2023-05-05T11:33:34.909Z,45.20
2023-05-05T11:37:05.975Z,44.90
2023-05-05T11:40:21.583Z,45.00
2023-05-05T11:43:36.030Z,45.10
2023-05-05T11:46:51.022Z,46.00
2023-05-05T11:50:05.399Z,45.60
2023-05-05T11:53:15.586Z,46.00
2023-05-05T11:56:30.308Z,46.20
2023-05-05T11:59:40.008Z,46.60
2023-05-05T12:02:52.880Z,47.40
2023-05-05T12:06:04.527Z,47.30
2023-05-05T12:09:18.261Z,47.10
2023-05-05T12:12:38.764Z,47.10
2023-05-05T12:15:50.182Z,47.20
2023-05-05T12:19:12.390Z,47.60
2023-05-05T12:22:32.008Z,47.60
2023-05-05T12:25:50.565Z,46.80
2023-05-05T12:29:04.985Z,47.10
2023-05-05T12:32:26.695Z,46.00
2023-05-05T12:35:37.198Z,45.80
2023-05-05T12:38:47.581Z,45.60
2023-05-05T12:41:56.401Z,45.50
2023-05-05T12:45:11.341Z,45.60
2023-05-05T12:48:29.235Z,45.70
2023-05-05T12:51:38.155Z,45.80
2023-05-05T12:55:03.222Z,45.70
2023-05-05T12:58:15.009Z,45.90
2023-05-05T13:01:26.149Z,45.80
2023-05-05T13:04:36.967Z,45.80
2023-05-05T13:07:58.279Z,45.90
2023-05-05T13:11:09.417Z,45.70
2023-05-05T13:14:19.124Z,45.40
2023-05-05T13:17:34.690Z,45.20
2023-05-05T13:20:44.391Z,44.90
2023-05-05T13:24:01.591Z,44.60
2023-05-05T13:27:12.484Z,44.70
2023-05-05T13:30:25.082Z,44.70
2023-05-05T13:33:35.436Z,44.70
2023-05-05T13:36:47.374Z,44.40
2023-05-05T13:39:59.969Z,44.10
2023-05-05T13:43:11.592Z,44.60
2023-05-05T13:46:23.128Z,44.00
2023-05-05T13:49:35.055Z,43.90
2023-05-05T13:52:47.904Z,43.60
2023-05-05T13:55:57.635Z,43.40
2023-05-05T13:59:08.796Z,43.50
2023-05-05T14:02:21.207Z,43.30
2023-05-05T14:05:31.511Z,43.30
2023-05-05T14:08:43.717Z,42.90
2023-05-05T14:11:56.495Z,42.90
2023-05-05T14:15:07.920Z,43.00
2023-05-05T14:18:23.285Z,42.90
2023-05-05T14:21:33.177Z,42.60
2023-05-05T14:24:43.768Z,42.60
2023-05-05T14:27:56.557Z,43.00
2023-05-05T14:31:10.654Z,42.60
2023-05-05T14:34:21.192Z,42.40
2023-05-05T14:37:33.524Z,42.10
2023-05-05T14:40:43.901Z,41.80
2023-05-05T14:43:54.608Z,41.90
2023-05-05T14:47:07.268Z,41.70
2023-05-05T14:50:15.379Z,41.80
2023-05-05T14:53:27.655Z,41.70
2023-05-05T14:56:40.771Z,41.70
2023-05-05T14:59:49.796Z,41.90
2023-05-05T15:02:59.573Z,42.10
2023-05-05T15:06:14.969Z,41.60
2023-05-05T15:09:25.661Z,41.60
2023-05-05T15:12:36.273Z,41.60
2023-05-05T15:15:43.950Z,41.80
2023-05-05T15:18:51.648Z,41.90
2023-05-05T15:22:03.571Z,41.90
2023-05-05T15:25:22.323Z,41.80
2023-05-05T15:28:31.932Z,42.10
2023-05-05T15:31:40.691Z,42.90
2023-05-05T15:34:50.966Z,42.50
2023-05-05T15:38:03.968Z,42.70
2023-05-05T15:41:13.870Z,42.80
2023-05-05T15:44:24.499Z,43.10
2023-05-05T15:47:34.025Z,43.00
2023-05-05T15:50:46.005Z,43.10
2023-05-05T15:53:56.516Z,43.10
2023-05-05T15:57:07.849Z,43.30
2023-05-05T16:00:20.274Z,43.70
2023-05-05T16:03:31.932Z,43.70
2023-05-05T16:06:40.772Z,43.80
2023-05-05T16:09:50.105Z,43.40
2023-05-05T16:13:00.375Z,43.60
2023-05-05T16:16:12.653Z,43.90
2023-05-05T16:19:24.352Z,44.00
2023-05-05T16:22:32.877Z,43.70
2023-05-05T16:25:43.571Z,43.80
2023-05-05T16:28:53.966Z,44.10
2023-05-05T16:32:01.889Z,44.20
2023-05-05T16:35:14.516Z,44.30
2023-05-05T16:38:25.933Z,44.00
2023-05-05T16:41:36.233Z,44.00
2023-05-05T16:44:45.929Z,44.20
2023-05-05T16:47:55.936Z,44.30
2023-05-05T16:51:07.599Z,44.40
2023-05-05T16:54:21.849Z,44.20
2023-05-05T16:57:33.359Z,44.00
2023-05-05T17:00:49.378Z,44.10
2023-05-05T17:04:00.887Z,44.20
2023-05-05T17:07:12.510Z,44.20
2023-05-05T17:10:26.813Z,43.80
2023-05-05T17:13:36.961Z,43.90
2023-05-05T17:16:47.763Z,44.00
2023-05-05T17:19:57.816Z,44.10
2023-05-05T17:23:10.997Z,43.70
2023-05-05T17:26:18.067Z,43.60
2023-05-05T17:29:27.478Z,43.90
2023-05-05T17:32:43.562Z,44.00
2023-05-05T17:35:55.405Z,44.00
2023-05-05T17:39:07.768Z,43.70
2023-05-05T17:42:19.186Z,43.80
2023-05-05T17:45:28.557Z,44.40
2023-05-05T17:48:37.779Z,43.80
2023-05-05T17:51:47.881Z,43.90
2023-05-05T17:54:56.736Z,43.80
2023-05-05T17:58:09.972Z,44.00
2023-05-05T18:01:26.715Z,43.90
2023-05-05T18:04:34.901Z,43.90
2023-05-05T18:07:46.160Z,43.70
2023-05-05T18:10:53.868Z,43.80
2023-05-05T18:14:04.606Z,44.00
2023-05-05T18:17:15.746Z,44.10
2023-05-05T18:20:25.258Z,44.00
2023-05-05T18:23:36.167Z,43.60
2023-05-05T18:26:46.204Z,43.80
2023-05-05T18:29:56.293Z,43.90
2023-05-05T18:33:08.214Z,43.90
2023-05-05T18:36:20.654Z,44.00
2023-05-05T18:39:29.683Z,43.80
2023-05-05T18:42:43.146Z,43.80
2023-05-05T18:45:53.458Z,43.90
2023-05-05T18:49:02.451Z,43.90
2023-05-05T18:52:13.726Z,43.60
2023-05-05T18:55:23.632Z,43.50
2023-05-05T18:58:34.294Z,43.80
2023-05-05T19:01:45.507Z,43.70
2023-05-05T19:04:55.592Z,43.70
2023-05-05T19:08:06.494Z,43.70
2023-05-05T19:11:18.282Z,43.70
2023-05-05T19:14:32.900Z,43.90
2023-05-05T19:17:41.891Z,43.90
2023-05-05T19:20:51.289Z,43.70
2023-05-05T19:24:03.932Z,43.70
2023-05-05T19:27:16.444Z,43.80
2023-05-05T19:30:28.606Z,43.90
2023-05-05T19:33:41.041Z,44.00
2023-05-05T19:36:49.759Z,43.90
2023-05-05T19:40:02.964Z,43.80
2023-05-05T19:43:09.701Z,43.70
2023-05-05T19:46:20.561Z,43.80
2023-05-05T19:49:32.582Z,43.70
2023-05-05T19:52:43.631Z,44.30
2023-05-05T19:55:51.921Z,43.90
2023-05-05T19:59:03.244Z,44.10
2023-05-05T20:02:17.635Z,44.40
2023-05-05T20:05:30.851Z,43.90
2023-05-05T20:08:40.413Z,43.90
2023-05-05T20:11:52.193Z,43.90
2023-05-05T20:15:01.884Z,43.90
2023-05-05T20:18:12.399Z,43.90
2023-05-05T20:21:25.989Z,44.00
2023-05-05T20:24:35.650Z,43.80
2023-05-05T20:27:45.900Z,43.90
2023-05-05T20:30:56.082Z,44.00
2023-05-05T20:34:04.317Z,44.10
2023-05-05T20:37:18.161Z,44.20
2023-05-05T20:40:30.974Z,43.90
2023-05-05T20:43:42.393Z,44.00
2023-05-05T20:46:54.309Z,44.40
2023-05-05T20:50:07.858Z,44.30
2023-05-05T20:53:19.550Z,44.20
2023-05-05T20:56:29.350Z,44.20
2023-05-05T20:59:39.620Z,44.20
2023-05-05T21:02:52.930Z,44.20
2023-05-05T21:06:00.858Z,44.00
2023-05-05T21:09:10.619Z,43.90
2023-05-05T21:12:22.041Z,44.10
2023-05-05T21:15:36.375Z,44.30
2023-05-05T21:18:46.775Z,44.40
2023-05-05T21:21:59.619Z,44.30
2023-05-05T21:25:19.245Z,44.10
2023-05-05T21:28:27.369Z,44.10
2023-05-05T21:31:38.713Z,44.20
2023-05-05T21:34:49.884Z,44.10
2023-05-05T21:37:59.966Z,44.10
2023-05-05T21:41:10.222Z,44.00
2023-05-05T21:44:22.775Z,44.20
2023-05-05T21:47:32.053Z,44.10
2023-05-05T21:50:41.458Z,44.20
2023-05-05T21:53:49.587Z,44.30
2023-05-05T21:56:58.900Z,43.90
2023-05-05T22:00:10.135Z,44.30
2023-05-05T22:03:20.953Z,44.10
2023-05-05T22:06:31.299Z,44.00
2023-05-05T22:09:40.577Z,43.90
2023-05-05T22:12:51.380Z,44.00
2023-05-05T22:16:03.387Z,44.10
2023-05-05T22:19:16.968Z,44.00
2023-05-05T22:22:26.055Z,44.00
2023-05-05T22:25:36.637Z,44.00
2023-05-05T22:28:48.493Z,44.00
2023-05-05T22:31:57.766Z,44.00
2023-05-05T22:35:10.516Z,43.90
2023-05-05T22:38:21.807Z,43.90
2023-05-05T22:41:32.752Z,44.00
2023-05-05T22:44:43.143Z,44.00
2023-05-05T22:47:55.985Z,43.80
2023-05-05T22:51:08.686Z,43.90
2023-05-05T22:54:22.102Z,43.90
2023-05-05T22:57:32.114Z,43.90
2023-05-05T23:00:42.771Z,43.90
2023-05-05T23:03:52.612Z,43.90
2023-05-05T23:07:02.494Z,43.90
2023-05-05T23:10:17.828Z,43.90
2023-05-05T23:13:28.509Z,44.00
2023-05-05T23:16:41.262Z,43.90
2023-05-05T23:19:52.773Z,43.80
2023-05-05T23:23:03.842Z,43.90
2023-05-05T23:26:17.176Z,43.70
2023-05-05T23:29:25.060Z,43.70
2023-05-05T23:32:34.466Z,43.80
2023-05-05T23:35:47.396Z,43.80
2023-05-05T23:38:55.691Z,43.70
2023-05-05T23:42:05.361Z,43.80
2023-05-05T23:45:20.000Z,43.80
2023-05-05T23:48:32.838Z,43.80
2023-05-05T23:51:43.158Z,43.80
2023-05-05T23:54:52.457Z,43.80
2023-05-05T23:58:02.070Z,43.80
